CMA CGM Volga — 5BJR2 — position and weather

sailwx.info

Track history (hours):
 
Tides and Currents Weather Stations Pressure Air Temp Water Temp Dewpoint Dewpoint Depression Visibility Wind Speed Wind Dir Waves Ship Positions

CMA CGM Volga

Last reported at 2015-Jun-27 03:30 UTC. Time now 2015-Jun-30 10:05 UTC.
Position N 55°40' E 021°09'.

Length 184 m; draft 8.7 m.

Type: Ship (hazmat cat A). MMSI: 212456000.

Date/timePositionNaut miles runAvg speedWind from/ knotsBaromVisibWave heightAir tempDewpointWater temp
2015-Jun-27 03:30N 55°40' E 021°09'  
2015-Jun-22 19:31N 54°23' E 018°43'0 0.0
2015-Jun-22 18:28N 54°23' E 018°43'0 0.0
2015-Jun-22 17:31N 54°23' E 018°43'0 0.0
2015-Jun-22 16:31N 54°23' E 018°43'0 0.0
2015-Jun-22 15:31N 54°23' E 018°43'0 0.0
2015-Jun-22 14:31N 54°23' E 018°43'0 0.0
2015-Jun-22 13:31N 54°23' E 018°43'0 0.0
2015-Jun-22 12:28N 54°23' E 018°43'0 0.0
2015-Jun-22 11:31N 54°23' E 018°43'0 0.0
2015-Jun-22 10:31N 54°23' E 018°43'0 0.0
2015-Jun-22 09:31N 54°23' E 018°43'0 0.0
2015-Jun-22 08:31N 54°23' E 018°43'0 0.0
2015-Jun-22 07:31N 54°23' E 018°43'0 0.0
2015-Jun-22 06:31N 54°23' E 018°43'0 0.0
2015-Jun-22 05:31N 54°23' E 018°43'0 0.0
2015-Jun-22 04:33N 54°23' E 018°43'5 4.9
2015-Jun-22 03:33N 54°26' E 018°50'1 0.6
2015-Jun-22 02:31N 54°27' E 018°50'0 0.0
2015-Jun-22 01:31N 54°27' E 018°50'0 0.0
2015-Jun-22 00:31N 54°27' E 018°50'0 0.0
2015-Jun-21 23:31N 54°27' E 018°50'0 0.0
2015-Jun-21 22:31N 54°27' E 018°50'0 0.0
2015-Jun-21 21:31N 54°27' E 018°50'0 0.0
2015-Jun-21 20:28N 54°27' E 018°50'0 0.0
2015-Jun-21 19:31N 54°27' E 018°50'0 0.1
2015-Jun-21 18:34N 54°27' E 018°50'9 8.6
2015-Jun-21 17:34N 54°33' E 019°01'1313.4
2015-Jun-21 16:34N 54°46' E 019°06'1414.1
2015-Jun-21 15:33N 54°56' E 019°23'2113.9
2015-Jun-21 14:04N 55°10' E 019°49'813.7
2015-Jun-21 13:30N 55°16' E 019°59'  
2015-Jun-18 18:25N 59°37' E 023°21'1112.9
2015-Jun-18 17:32N 59°41' E 023°43'3511.6
2015-Jun-18 14:30N 59°36' E 024°52'3 0.4
2015-Jun-18 06:19N 59°33' E 024°56'1012.9
2015-Jun-18 05:33N 59°40' E 024°42'2517.4
2015-Jun-18 04:05N 59°38' E 023°52'31018.4
2015-Jun-17 11:11N 55°09' E 019°06'1219.1
2015-Jun-17 10:33N 54°57' E 019°06'1818.5
2015-Jun-17 09:34N 54°38' E 019°07'1515.2
2015-Jun-17 08:34N 54°26' E 018°53'6 5.9
2015-Jun-17 07:33N 54°23' E 018°43'0 0.0
2015-Jun-17 06:33N 54°23' E 018°43'0 0.0
2015-Jun-17 05:33N 54°23' E 018°43'0 0.0
2015-Jun-17 04:33N 54°23' E 018°43'  
Track history (hours):
 
Tides and Currents Weather Stations Pressure Air Temp Water Temp Dewpoint Dewpoint Depression Visibility Wind Speed Wind Dir Waves Ship Positions

CMA CGM Volga

Last reported at 2015-Jun-27 03:30 UTC. Time now 2015-Jun-30 10:05 UTC.
Position N 55°40' E 021°09'.

Length 184 m; draft 8.7 m.

Type: Ship (hazmat cat A). MMSI: 212456000.

Date/timePositionNaut miles runAvg speedWind from/ knotsBaromVisibWave heightAir tempDewpointWater temp
2015-Jun-27 03:30N 55°40' E 021°09'  
2015-Jun-22 19:31N 54°23' E 018°43'0 0.0
2015-Jun-22 18:28N 54°23' E 018°43'0 0.0
2015-Jun-22 17:31N 54°23' E 018°43'0 0.0
2015-Jun-22 16:31N 54°23' E 018°43'0 0.0
2015-Jun-22 15:31N 54°23' E 018°43'0 0.0
2015-Jun-22 14:31N 54°23' E 018°43'0 0.0
2015-Jun-22 13:31N 54°23' E 018°43'0 0.0
2015-Jun-22 12:28N 54°23' E 018°43'0 0.0
2015-Jun-22 11:31N 54°23' E 018°43'0 0.0
2015-Jun-22 10:31N 54°23' E 018°43'0 0.0
2015-Jun-22 09:31N 54°23' E 018°43'0 0.0
2015-Jun-22 08:31N 54°23' E 018°43'0 0.0
2015-Jun-22 07:31N 54°23' E 018°43'0 0.0
2015-Jun-22 06:31N 54°23' E 018°43'0 0.0
2015-Jun-22 05:31N 54°23' E 018°43'0 0.0
2015-Jun-22 04:33N 54°23' E 018°43'5 4.9
2015-Jun-22 03:33N 54°26' E 018°50'1 0.6
2015-Jun-22 02:31N 54°27' E 018°50'0 0.0
2015-Jun-22 01:31N 54°27' E 018°50'0 0.0
2015-Jun-22 00:31N 54°27' E 018°50'0 0.0
2015-Jun-21 23:31N 54°27' E 018°50'0 0.0
2015-Jun-21 22:31N 54°27' E 018°50'0 0.0
2015-Jun-21 21:31N 54°27' E 018°50'0 0.0
2015-Jun-21 20:28N 54°27' E 018°50'0 0.0
2015-Jun-21 19:31N 54°27' E 018°50'0 0.1
2015-Jun-21 18:34N 54°27' E 018°50'9 8.6
2015-Jun-21 17:34N 54°33' E 019°01'1313.4
2015-Jun-21 16:34N 54°46' E 019°06'1414.1
2015-Jun-21 15:33N 54°56' E 019°23'2113.9
2015-Jun-21 14:04N 55°10' E 019°49'813.7
2015-Jun-21 13:30N 55°16' E 019°59'  
2015-Jun-18 18:25N 59°37' E 023°21'1112.9
2015-Jun-18 17:32N 59°41' E 023°43'3511.6
2015-Jun-18 14:30N 59°36' E 024°52'3 0.4
2015-Jun-18 06:19N 59°33' E 024°56'1012.9
2015-Jun-18 05:33N 59°40' E 024°42'2517.4
2015-Jun-18 04:05N 59°38' E 023°52'31018.4
2015-Jun-17 11:11N 55°09' E 019°06'1219.1
2015-Jun-17 10:33N 54°57' E 019°06'1818.5
2015-Jun-17 09:34N 54°38' E 019°07'1515.2
2015-Jun-17 08:34N 54°26' E 018°53'6 5.9
2015-Jun-17 07:33N 54°23' E 018°43'0 0.0
2015-Jun-17 06:33N 54°23' E 018°43'0 0.0
2015-Jun-17 05:33N 54°23' E 018°43'0 0.0
2015-Jun-17 04:33N 54°23' E 018°43'  

Dump ship's entire track history